TAF Text Data
IDs:
Format:
Raw Decoded Include METAR

Data at: 0828 UTC 27 Feb 2020

KMKL 270532Z 2706/2806 31005KT P6SM SKC
  FM271500 27008KT P6SM SKC
  FM271900 25011KT P6SM SKC
  FM280000 21006KT P6SM BKN100